sensor_id;sensor_type;location;lat;lon;timestamp;pressure;altitude;pressure_sealevel;temperature;humidity
61408;BME280;47274;43.054;25.146;2023-11-21T00:02:01;95344.34;;;7.60;63.45
61408;BME280;47274;43.054;25.146;2023-11-21T00:04:27;95304.81;;;7.35;63.21
61408;BME280;47274;43.054;25.146;2023-11-21T00:06:54;95333.47;;;7.58;63.29
61408;BME280;47274;43.054;25.146;2023-11-21T00:09:20;95344.63;;;7.57;62.97
61408;BME280;47274;43.054;25.146;2023-11-21T00:11:47;95330.50;;;7.53;63.20
61408;BME280;47274;43.054;25.146;2023-11-21T00:14:15;95283.72;;;7.33;63.23
61408;BME280;47274;43.054;25.146;2023-11-21T00:16:41;95210.84;;;6.81;62.96
61408;BME280;47274;43.054;25.146;2023-11-21T00:19:07;95318.03;;;7.60;63.00
61408;BME280;47274;43.054;25.146;2023-11-21T00:21:37;95224.97;;;6.95;63.07
61408;BME280;47274;43.054;25.146;2023-11-21T00:24:03;95240.28;;;6.95;62.81
61408;BME280;47274;43.054;25.146;2023-11-21T00:26:29;95275.63;;;7.19;63.52
61408;BME280;47274;43.054;25.146;2023-11-21T00:29:01;95297.44;;;7.32;63.42
61408;BME280;47274;43.054;25.146;2023-11-21T00:31:29;95337.56;;;6.90;65.75
61408;BME280;47274;43.054;25.146;2023-11-21T00:33:56;95341.25;;;6.46;68.27
61408;BME280;47274;43.054;25.146;2023-11-21T00:36:23;95343.25;;;6.42;68.30
61408;BME280;47274;43.054;25.146;2023-11-21T00:38:51;95323.50;;;6.65;67.18
61408;BME280;47274;43.054;25.146;2023-11-21T00:41:16;95337.97;;;6.85;66.78
61408;BME280;47274;43.054;25.146;2023-11-21T00:43:42;95318.50;;;6.84;66.55
61408;BME280;47274;43.054;25.146;2023-11-21T00:46:09;95299.47;;;6.58;66.61
61408;BME280;47274;43.054;25.146;2023-11-21T00:48:35;95295.63;;;6.22;68.53
61408;BME280;47274;43.054;25.146;2023-11-21T00:51:02;95330.88;;;6.16;70.01
61408;BME280;47274;43.054;25.146;2023-11-21T00:53:28;95269.81;;;5.73;70.11
61408;BME280;47274;43.054;25.146;2023-11-21T00:55:55;95280.72;;;5.64;71.54
61408;BME280;47274;43.054;25.146;2023-11-21T00:58:26;95316.06;;;5.57;73.07
61408;BME280;47274;43.054;25.146;2023-11-21T01:00:52;95329.13;;;5.53;73.26
61408;BME280;47274;43.054;25.146;2023-11-21T01:03:18;95304.91;;;5.37;73.49
61408;BME280;47274;43.054;25.146;2023-11-21T01:05:45;95298.59;;;5.53;72.82
61408;BME280;47274;43.054;25.146;2023-11-21T01:08:14;95294.69;;;5.49;72.87
61408;BME280;47274;43.054;25.146;2023-11-21T01:10:40;95265.84;;;5.16;74.09
61408;BME280;47274;43.054;25.146;2023-11-21T01:13:05;95285.38;;;5.27;73.54
61408;BME280;47274;43.054;25.146;2023-11-21T01:15:33;95323.56;;;5.59;73.78
61408;BME280;47274;43.054;25.146;2023-11-21T01:18:08;95286.53;;;5.34;73.51
61408;BME280;47274;43.054;25.146;2023-11-21T01:20:49;95288.56;;;5.40;73.16
61408;BME280;47274;43.054;25.146;2023-11-21T01:23:44;95321.44;;;5.75;72.62
61408;BME280;47274;43.054;25.146;2023-11-21T01:26:24;95224.47;;;5.14;72.67
61408;BME280;47274;43.054;25.146;2023-11-21T01:28:50;95248.03;;;5.27;72.44
61408;BME280;47274;43.054;25.146;2023-11-21T01:31:17;95253.13;;;5.16;73.86
61408;BME280;47274;43.054;25.146;2023-11-21T01:33:43;95270.69;;;5.19;74.44
61408;BME280;47274;43.054;25.146;2023-11-21T01:36:10;95261.50;;;5.07;74.99
61408;BME280;47274;43.054;25.146;2023-11-21T01:38:36;95254.06;;;5.15;74.65
61408;BME280;47274;43.054;25.146;2023-11-21T01:41:01;95303.97;;;5.38;74.91
61408;BME280;47274;43.054;25.146;2023-11-21T01:43:29;95249.81;;;5.04;74.62
61408;BME280;47274;43.054;25.146;2023-11-21T01:45:57;95305.47;;;5.41;75.10
61408;BME280;47274;43.054;25.146;2023-11-21T01:48:24;95303.19;;;5.27;76.21
61408;BME280;47274;43.054;25.146;2023-11-21T01:50:51;95283.81;;;5.03;76.82
61408;BME280;47274;43.054;25.146;2023-11-21T01:53:17;95261.03;;;5.02;75.76
61408;BME280;47274;43.054;25.146;2023-11-21T01:55:45;95267.94;;;5.11;75.94
61408;BME280;47274;43.054;25.146;2023-11-21T01:58:12;95220.16;;;4.82;75.80
61408;BME280;47274;43.054;25.146;2023-11-21T02:00:39;95260.00;;;5.04;75.98
61408;BME280;47274;43.054;25.146;2023-11-21T02:03:05;95304.75;;;5.39;75.57
61408;BME280;47274;43.054;25.146;2023-11-21T02:05:33;95301.03;;;5.43;75.36
61408;BME280;47274;43.054;25.146;2023-11-21T02:07:59;95248.53;;;5.10;75.41
61408;BME280;47274;43.054;25.146;2023-11-21T02:10:26;95246.56;;;5.13;74.66
61408;BME280;47274;43.054;25.146;2023-11-21T02:12:52;95273.91;;;5.32;74.97
61408;BME280;47274;43.054;25.146;2023-11-21T02:15:18;95261.47;;;5.18;74.96
61408;BME280;47274;43.054;25.146;2023-11-21T02:17:49;95192.69;;;4.76;74.64
61408;BME280;47274;43.054;25.146;2023-11-21T02:20:18;95293.63;;;5.51;74.91
61408;BME280;47274;43.054;25.146;2023-11-21T02:22:56;95243.78;;;5.16;74.37
61408;BME280;47274;43.054;25.146;2023-11-21T02:25:26;95233.03;;;5.13;74.24
61408;BME280;47274;43.054;25.146;2023-11-21T02:28:05;95301.38;;;5.61;73.67
61408;BME280;47274;43.054;25.146;2023-11-21T02:30:34;95193.41;;;4.99;73.11
61408;BME280;47274;43.054;25.146;2023-11-21T02:33:01;95302.75;;;5.86;72.82
61408;BME280;47274;43.054;25.146;2023-11-21T02:35:29;95307.56;;;6.00;72.12
61408;BME280;47274;43.054;25.146;2023-11-21T02:37:57;95271.91;;;6.00;70.15
61408;BME280;47274;43.054;25.146;2023-11-21T02:40:24;95269.25;;;6.02;70.72
61408;BME280;47274;43.054;25.146;2023-11-21T02:42:52;95264.41;;;5.99;70.32
61408;BME280;47274;43.054;25.146;2023-11-21T02:45:20;95290.28;;;6.25;70.00
61408;BME280;47274;43.054;25.146;2023-11-21T02:47:50;95253.69;;;6.05;69.65
61408;BME280;47274;43.054;25.146;2023-11-21T02:50:23;95265.84;;;6.12;70.34
61408;BME280;47274;43.054;25.146;2023-11-21T02:53:14;95249.13;;;6.20;68.78
61408;BME280;47274;43.054;25.146;2023-11-21T02:55:58;95266.63;;;6.34;68.73
61408;BME280;47274;43.054;25.146;2023-11-21T02:58:36;95260.69;;;6.54;67.27
61408;BME280;47274;43.054;25.146;2023-11-21T03:01:02;95267.56;;;6.63;67.30
61408;BME280;47274;43.054;25.146;2023-11-21T03:03:31;95276.38;;;6.59;67.87
61408;BME280;47274;43.054;25.146;2023-11-21T03:05:56;95178.66;;;6.09;66.80
61408;BME280;47274;43.054;25.146;2023-11-21T03:08:22;95252.81;;;6.77;65.98
61408;BME280;47274;43.054;25.146;2023-11-21T03:10:48;95205.84;;;6.39;66.23
61408;BME280;47274;43.054;25.146;2023-11-21T03:13:15;95280.59;;;6.70;66.86
61408;BME280;47274;43.054;25.146;2023-11-21T03:15:41;95279.91;;;6.68;66.55
61408;BME280;47274;43.054;25.146;2023-11-21T03:18:08;95281.63;;;6.58;67.14
61408;BME280;47274;43.054;25.146;2023-11-21T03:20:35;95274.22;;;6.55;67.59
61408;BME280;47274;43.054;25.146;2023-11-21T03:23:02;95254.78;;;6.54;66.91
61408;BME280;47274;43.054;25.146;2023-11-21T03:25:30;95240.13;;;6.56;65.76
61408;BME280;47274;43.054;25.146;2023-11-21T03:27:56;95260.31;;;6.69;65.85
61408;BME280;47274;43.054;25.146;2023-11-21T03:30:23;95266.66;;;6.74;66.54
61408;BME280;47274;43.054;25.146;2023-11-21T03:32:49;95269.34;;;6.82;66.43
61408;BME280;47274;43.054;25.146;2023-11-21T03:35:15;95272.31;;;6.78;66.82
61408;BME280;47274;43.054;25.146;2023-11-21T03:37:41;95266.66;;;6.74;66.89
61408;BME280;47274;43.054;25.146;2023-11-21T03:40:08;95255.69;;;6.53;67.53
61408;BME280;47274;43.054;25.146;2023-11-21T03:42:34;95217.91;;;6.27;67.30
61408;BME280;47274;43.054;25.146;2023-11-21T03:45:00;95269.94;;;6.55;67.34
61408;BME280;47274;43.054;25.146;2023-11-21T03:47:28;95280.81;;;6.57;68.14
61408;BME280;47274;43.054;25.146;2023-11-21T03:49:57;95264.13;;;6.44;68.07
61408;BME280;47274;43.054;25.146;2023-11-21T03:52:33;95251.78;;;6.49;67.06
61408;BME280;47274;43.054;25.146;2023-11-21T03:55:20;95271.06;;;6.72;66.00
61408;BME280;47274;43.054;25.146;2023-11-21T03:57:59;95270.25;;;6.72;66.23
61408;BME280;47274;43.054;25.146;2023-11-21T04:00:25;95291.50;;;6.82;65.96
61408;BME280;47274;43.054;25.146;2023-11-21T04:02:54;95259.19;;;6.52;66.29
61408;BME280;47274;43.054;25.146;2023-11-21T04:05:20;95293.91;;;6.74;66.81
61408;BME280;47274;43.054;25.146;2023-11-21T04:07:50;95283.31;;;6.78;66.06
61408;BME280;47274;43.054;25.146;2023-11-21T04:10:17;95301.31;;;6.86;66.10
61408;BME280;47274;43.054;25.146;2023-11-21T04:12:44;95219.25;;;6.31;65.85
61408;BME280;47274;43.054;25.146;2023-11-21T04:15:11;95290.50;;;6.63;66.51
61408;BME280;47274;43.054;25.146;2023-11-21T04:17:41;95296.97;;;6.68;66.96
61408;BME280;47274;43.054;25.146;2023-11-21T04:20:10;95270.13;;;6.43;67.14
61408;BME280;47274;43.054;25.146;2023-11-21T04:22:39;95273.03;;;6.59;66.34
61408;BME280;47274;43.054;25.146;2023-11-21T04:25:10;95299.81;;;6.74;66.91
61408;BME280;47274;43.054;25.146;2023-11-21T04:27:45;95283.00;;;6.72;66.63
61408;BME280;47274;43.054;25.146;2023-11-21T04:30:23;95311.91;;;6.82;66.13
61408;BME280;47274;43.054;25.146;2023-11-21T04:33:12;95274.38;;;6.63;65.96
61408;BME280;47274;43.054;25.146;2023-11-21T04:35:53;95289.47;;;6.76;66.46
61408;BME280;47274;43.054;25.146;2023-11-21T04:38:41;95296.22;;;6.86;65.96
61408;BME280;47274;43.054;25.146;2023-11-21T04:41:08;95197.16;;;6.11;65.98
61408;BME280;47274;43.054;25.146;2023-11-21T04:43:37;95244.78;;;6.41;67.10
61408;BME280;47274;43.054;25.146;2023-11-21T04:46:04;95251.38;;;6.44;66.80
61408;BME280;47274;43.054;25.146;2023-11-21T04:48:33;95275.22;;;6.73;66.41
61408;BME280;47274;43.054;25.146;2023-11-21T04:50:59;95250.25;;;6.67;65.75
61408;BME280;47274;43.054;25.146;2023-11-21T04:53:25;95248.38;;;6.69;65.08
61408;BME280;47274;43.054;25.146;2023-11-21T04:55:50;95247.81;;;6.65;65.03
61408;BME280;47274;43.054;25.146;2023-11-21T04:58:25;95267.84;;;6.70;65.81
61408;BME280;47274;43.054;25.146;2023-11-21T05:01:18;95283.84;;;6.82;66.10
61408;BME280;47274;43.054;25.146;2023-11-21T05:03:56;95270.41;;;6.80;65.82
61408;BME280;47274;43.054;25.146;2023-11-21T05:06:33;95276.00;;;6.95;65.13
61408;BME280;47274;43.054;25.146;2023-11-21T05:09:10;95257.31;;;6.94;64.41
61408;BME280;47274;43.054;25.146;2023-11-21T05:11:38;95254.69;;;7.34;61.95
61408;BME280;47274;43.054;25.146;2023-11-21T05:14:04;95266.69;;;7.53;61.74
61408;BME280;47274;43.054;25.146;2023-11-21T05:16:31;95254.16;;;7.31;62.44
61408;BME280;47274;43.054;25.146;2023-11-21T05:18:57;95237.50;;;6.67;65.04
61408;BME280;47274;43.054;25.146;2023-11-21T05:21:30;95317.47;;;6.66;67.28
61408;BME280;47274;43.054;25.146;2023-11-21T05:23:59;95298.75;;;6.25;68.44
61408;BME280;47274;43.054;25.146;2023-11-21T05:26:26;95318.78;;;6.09;70.42
61408;BME280;47274;43.054;25.146;2023-11-21T05:28:52;95281.47;;;5.55;71.78
61408;BME280;47274;43.054;25.146;2023-11-21T05:31:18;95320.56;;;5.65;72.60
61408;BME280;47274;43.054;25.146;2023-11-21T05:33:44;95320.09;;;5.60;73.44
61408;BME280;47274;43.054;25.146;2023-11-21T05:36:10;95321.63;;;5.51;74.04
61408;BME280;47274;43.054;25.146;2023-11-21T05:38:36;95288.88;;;5.14;75.08
61408;BME280;47274;43.054;25.146;2023-11-21T05:41:03;95299.63;;;5.18;75.54
61408;BME280;47274;43.054;25.146;2023-11-21T05:43:30;95272.38;;;4.97;75.79
61408;BME280;47274;43.054;25.146;2023-11-21T05:46:01;95221.94;;;4.59;76.85
61408;BME280;47274;43.054;25.146;2023-11-21T05:48:52;95260.59;;;4.74;77.59
61408;BME280;47274;43.054;25.146;2023-11-21T05:51:42;95191.47;;;4.48;76.52
61408;BME280;47274;43.054;25.146;2023-11-21T05:54:18;95291.16;;;5.29;75.39
61408;BME280;47274;43.054;25.146;2023-11-21T05:56:58;95314.97;;;6.03;71.02
61408;BME280;47274;43.054;25.146;2023-11-21T05:59:23;95287.94;;;6.33;68.35
61408;BME280;47274;43.054;25.146;2023-11-21T06:01:49;95320.81;;;6.97;66.76
61408;BME280;47274;43.054;25.146;2023-11-21T06:04:15;95303.41;;;7.02;65.63
61408;BME280;47274;43.054;25.146;2023-11-21T06:06:41;95320.69;;;7.39;64.59
61408;BME280;47274;43.054;25.146;2023-11-21T06:09:07;95260.97;;;7.11;64.61
61408;BME280;47274;43.054;25.146;2023-11-21T06:11:35;95283.72;;;7.33;65.11
61408;BME280;47274;43.054;25.146;2023-11-21T06:14:01;95293.94;;;7.43;64.07
61408;BME280;47274;43.054;25.146;2023-11-21T06:16:27;95298.25;;;7.62;63.09
61408;BME280;47274;43.054;25.146;2023-11-21T06:18:54;95303.38;;;7.91;62.80
61408;BME280;47274;43.054;25.146;2023-11-21T06:21:20;95260.09;;;7.70;62.19
61408;BME280;47274;43.054;25.146;2023-11-21T06:23:46;95218.56;;;7.49;62.20
61408;BME280;47274;43.054;25.146;2023-11-21T06:26:16;95289.53;;;7.94;62.44
61408;BME280;47274;43.054;25.146;2023-11-21T06:28:42;95236.97;;;7.62;62.13
61408;BME280;47274;43.054;25.146;2023-11-21T06:31:10;95294.22;;;8.08;60.36
61408;BME280;47274;43.054;25.146;2023-11-21T06:33:36;95275.53;;;8.07;61.18
61408;BME280;47274;43.054;25.146;2023-11-21T06:36:02;95232.13;;;7.78;60.93
61408;BME280;47274;43.054;25.146;2023-11-21T06:38:28;95261.91;;;8.17;59.82
61408;BME280;47274;43.054;25.146;2023-11-21T06:40:58;95171.41;;;7.53;60.11
61408;BME280;47274;43.054;25.146;2023-11-21T06:43:30;95310.06;;;8.21;61.66
61408;BME280;47274;43.054;25.146;2023-11-21T06:46:03;95252.00;;;7.75;61.05
61408;BME280;47274;43.054;25.146;2023-11-21T06:48:32;95262.22;;;7.75;60.58
61408;BME280;47274;43.054;25.146;2023-11-21T06:50:58;95301.88;;;8.08;60.94
61408;BME280;47274;43.054;25.146;2023-11-21T06:53:23;95241.69;;;7.76;60.18
61408;BME280;47274;43.054;25.146;2023-11-21T06:55:51;95238.81;;;7.89;59.17
61408;BME280;47274;43.054;25.146;2023-11-21T06:58:20;95308.59;;;8.48;57.97
61408;BME280;47274;43.054;25.146;2023-11-21T07:00:46;95281.38;;;8.47;57.23
61408;BME280;47274;43.054;25.146;2023-11-21T07:03:14;95273.22;;;8.71;57.27
61408;BME280;47274;43.054;25.146;2023-11-21T07:05:45;95308.91;;;9.10;57.24
61408;BME280;47274;43.054;25.146;2023-11-21T07:08:11;95307.56;;;9.51;56.66
61408;BME280;47274;43.054;25.146;2023-11-21T07:10:38;95304.44;;;9.75;56.37
61408;BME280;47274;43.054;25.146;2023-11-21T07:13:07;95285.47;;;9.68;57.58
61408;BME280;47274;43.054;25.146;2023-11-21T07:15:36;95316.06;;;9.87;57.40
61408;BME280;47274;43.054;25.146;2023-11-21T07:18:03;95294.84;;;9.95;56.44
61408;BME280;47274;43.054;25.146;2023-11-21T07:20:29;95309.19;;;10.06;55.18
61408;BME280;47274;43.054;25.146;2023-11-21T07:23:06;95325.38;;;10.06;54.71
61408;BME280;47274;43.054;25.146;2023-11-21T07:25:46;95286.19;;;9.96;54.56
61408;BME280;47274;43.054;25.146;2023-11-21T07:28:15;95271.97;;;10.72;51.47
61408;BME280;47274;43.054;25.146;2023-11-21T07:30:54;95277.19;;;11.55;50.03
61408;BME280;47274;43.054;25.146;2023-11-21T07:33:25;95273.75;;;11.89;49.04
61408;BME280;47274;43.054;25.146;2023-11-21T07:35:51;95297.53;;;12.31;49.88
61408;BME280;47274;43.054;25.146;2023-11-21T07:38:17;95290.22;;;13.15;47.93
61408;BME280;47274;43.054;25.146;2023-11-21T07:40:51;95242.34;;;11.69;51.97
61408;BME280;47274;43.054;25.146;2023-11-21T07:43:39;95285.34;;;11.34;52.81
61408;BME280;47274;43.054;25.146;2023-11-21T07:46:22;95254.94;;;11.05;54.96
61408;BME280;47274;43.054;25.146;2023-11-21T07:49:05;95279.13;;;10.94;55.83
61408;BME280;47274;43.054;25.146;2023-11-21T07:51:48;95282.84;;;9.95;58.44
61408;BME280;47274;43.054;25.146;2023-11-21T07:54:13;95249.53;;;9.42;57.28
61408;BME280;47274;43.054;25.146;2023-11-21T07:56:39;95241.09;;;9.14;57.54
61408;BME280;47274;43.054;25.146;2023-11-21T07:59:05;95287.22;;;9.49;56.29
61408;BME280;47274;43.054;25.146;2023-11-21T08:01:31;95291.06;;;9.36;55.83
61408;BME280;47274;43.054;25.146;2023-11-21T08:03:57;95289.44;;;9.62;54.91
61408;BME280;47274;43.054;25.146;2023-11-21T08:06:35;95291.59;;;10.11;54.18
61408;BME280;47274;43.054;25.146;2023-11-21T08:09:18;95280.63;;;10.71;55.01
61408;BME280;47274;43.054;25.146;2023-11-21T08:11:56;95306.28;;;10.71;52.77
61408;BME280;47274;43.054;25.146;2023-11-21T08:14:36;95258.34;;;10.71;51.62
61408;BME280;47274;43.054;25.146;2023-11-21T08:17:07;95246.16;;;11.24;50.18
61408;BME280;47274;43.054;25.146;2023-11-21T08:19:35;95218.13;;;11.63;48.58
61408;BME280;47274;43.054;25.146;2023-11-21T08:22:03;95230.19;;;12.03;49.39
61408;BME280;47274;43.054;25.146;2023-11-21T08:24:29;95292.38;;;12.15;49.27
61408;BME280;47274;43.054;25.146;2023-11-21T08:26:55;95243.78;;;11.55;52.08
61408;BME280;47274;43.054;25.146;2023-11-21T08:29:22;95207.75;;;10.98;52.54
61408;BME280;47274;43.054;25.146;2023-11-21T08:31:49;95208.38;;;11.00;52.36
61408;BME280;47274;43.054;25.146;2023-11-21T08:34:15;95261.94;;;11.53;50.69
61408;BME280;47274;43.054;25.146;2023-11-21T08:36:49;95271.28;;;11.79;51.13
61408;BME280;47274;43.054;25.146;2023-11-21T08:39:34;95220.66;;;12.20;51.41
61408;BME280;47274;43.054;25.146;2023-11-21T08:42:17;95275.13;;;12.56;49.60
61408;BME280;47274;43.054;25.146;2023-11-21T08:44:58;95277.28;;;12.92;49.84
61408;BME280;47274;43.054;25.146;2023-11-21T08:47:24;95271.13;;;13.64;50.01
61408;BME280;47274;43.054;25.146;2023-11-21T08:49:50;95249.00;;;14.53;48.18
61408;BME280;47274;43.054;25.146;2023-11-21T08:52:30;95247.44;;;13.91;49.28
61408;BME280;47274;43.054;25.146;2023-11-21T08:55:26;95244.63;;;14.83;46.58
61408;BME280;47274;43.054;25.146;2023-11-21T08:58:14;95253.38;;;15.70;43.67
61408;BME280;47274;43.054;25.146;2023-11-21T09:00:50;95242.72;;;16.01;44.07
61408;BME280;47274;43.054;25.146;2023-11-21T09:03:17;95228.59;;;16.59;43.94
61408;BME280;47274;43.054;25.146;2023-11-21T09:05:43;95232.13;;;16.52;41.86
61408;BME280;47274;43.054;25.146;2023-11-21T09:08:10;95209.38;;;15.91;42.96
61408;BME280;47274;43.054;25.146;2023-11-21T09:10:36;95240.13;;;16.57;43.13
61408;BME280;47274;43.054;25.146;2023-11-21T09:13:02;95229.03;;;16.35;42.64
61408;BME280;47274;43.054;25.146;2023-11-21T09:15:28;95243.41;;;16.72;40.48
61408;BME280;47274;43.054;25.146;2023-11-21T09:17:54;95239.47;;;17.24;42.04
61408;BME280;47274;43.054;25.146;2023-11-21T09:20:20;95217.69;;;18.13;39.83
61408;BME280;47274;43.054;25.146;2023-11-21T09:22:49;95213.03;;;19.20;36.57
61408;BME280;47274;43.054;25.146;2023-11-21T09:25:16;95228.84;;;19.95;36.22
61408;BME280;47274;43.054;25.146;2023-11-21T09:27:42;95239.34;;;18.99;32.97
61408;BME280;47274;43.054;25.146;2023-11-21T09:30:08;95234.41;;;18.84;34.91
61408;BME280;47274;43.054;25.146;2023-11-21T09:32:40;95188.94;;;17.88;36.94
61408;BME280;47274;43.054;25.146;2023-11-21T09:35:06;95177.38;;;18.89;37.38
61408;BME280;47274;43.054;25.146;2023-11-21T09:37:35;95201.28;;;19.11;33.72
61408;BME280;47274;43.054;25.146;2023-11-21T09:40:05;95197.03;;;18.65;34.25
61408;BME280;47274;43.054;25.146;2023-11-21T09:42:40;95166.16;;;18.17;34.39
61408;BME280;47274;43.054;25.146;2023-11-21T09:45:27;95206.25;;;17.55;37.18
61408;BME280;47274;43.054;25.146;2023-11-21T09:47:57;95190.69;;;18.34;38.13
61408;BME280;47274;43.054;25.146;2023-11-21T09:50:24;95164.03;;;18.59;35.80
61408;BME280;47274;43.054;25.146;2023-11-21T09:53:21;95198.31;;;17.96;35.35
61408;BME280;47274;43.054;25.146;2023-11-21T09:55:49;95194.25;;;17.60;37.91
61408;BME280;47274;43.054;25.146;2023-11-21T09:58:17;95152.72;;;17.20;37.77
61408;BME280;47274;43.054;25.146;2023-11-21T10:00:50;95175.75;;;16.95;37.86
61408;BME280;47274;43.054;25.146;2023-11-21T10:03:18;95177.16;;;16.98;38.62
61408;BME280;47274;43.054;25.146;2023-11-21T10:05:50;95172.53;;;16.87;37.31
61408;BME280;47274;43.054;25.146;2023-11-21T10:08:19;95162.47;;;17.18;35.02
61408;BME280;47274;43.054;25.146;2023-11-21T10:10:51;95154.03;;;16.96;34.30
61408;BME280;47274;43.054;25.146;2023-11-21T10:13:19;95161.97;;;17.96;34.39
61408;BME280;47274;43.054;25.146;2023-11-21T10:15:50;95136.53;;;19.66;32.61
61408;BME280;47274;43.054;25.146;2023-11-21T10:18:17;95147.88;;;20.40;32.05
61408;BME280;47274;43.054;25.146;2023-11-21T10:20:45;95156.97;;;18.01;34.04
61408;BME280;47274;43.054;25.146;2023-11-21T10:23:19;95131.94;;;19.30;32.94
61408;BME280;47274;43.054;25.146;2023-11-21T10:25:46;95156.41;;;22.40;31.09
61408;BME280;47274;43.054;25.146;2023-11-21T10:28:12;95132.06;;;23.32;29.01
61408;BME280;47274;43.054;25.146;2023-11-21T10:30:38;95113.88;;;21.02;31.06
61408;BME280;47274;43.054;25.146;2023-11-21T10:33:07;95136.41;;;21.45;31.37
61408;BME280;47274;43.054;25.146;2023-11-21T10:35:46;95136.25;;;22.52;29.47
61408;BME280;47274;43.054;25.146;2023-11-21T10:38:18;95114.03;;;23.35;27.90
61408;BME280;47274;43.054;25.146;2023-11-21T10:40:46;95054.03;;;23.34;26.77
61408;BME280;47274;43.054;25.146;2023-11-21T10:43:13;95113.91;;;23.93;27.81
61408;BME280;47274;43.054;25.146;2023-11-21T10:45:41;95132.06;;;23.65;25.94
61408;BME280;47274;43.054;25.146;2023-11-21T10:48:09;95124.28;;;22.68;27.97
61408;BME280;47274;43.054;25.146;2023-11-21T10:50:46;95114.28;;;24.57;26.23
61408;BME280;47274;43.054;25.146;2023-11-21T10:53:12;95079.22;;;24.63;24.37
61408;BME280;47274;43.054;25.146;2023-11-21T10:55:38;95109.88;;;25.98;25.61
61408;BME280;47274;43.054;25.146;2023-11-21T10:58:05;95064.44;;;24.35;26.58
61408;BME280;47274;43.054;25.146;2023-11-21T11:00:32;95098.09;;;24.87;24.12
61408;BME280;47274;43.054;25.146;2023-11-21T11:02:59;95096.81;;;25.71;24.50
61408;BME280;47274;43.054;25.146;2023-11-21T11:05:27;95054.94;;;25.00;25.61
61408;BME280;47274;43.054;25.146;2023-11-21T11:08:04;95061.44;;;25.51;24.44
61408;BME280;47274;43.054;25.146;2023-11-21T11:10:30;95083.47;;;26.67;23.96
61408;BME280;47274;43.054;25.146;2023-11-21T11:12:56;95075.81;;;26.18;22.94
61408;BME280;47274;43.054;25.146;2023-11-21T11:15:23;95054.94;;;26.49;23.41
61408;BME280;47274;43.054;25.146;2023-11-21T11:17:49;95066.22;;;26.44;22.58
61408;BME280;47274;43.054;25.146;2023-11-21T11:20:17;95059.72;;;23.14;25.80
61408;BME280;47274;43.054;25.146;2023-11-21T11:28:08;95029.91;;;19.96;30.79
61408;BME280;47274;43.054;25.146;2023-11-21T11:30:57;95010.22;;;19.38;30.71
61408;BME280;47274;43.054;25.146;2023-11-21T11:38:52;95015.94;;;19.91;30.64
61408;BME280;47274;43.054;25.146;2023-11-21T11:41:27;95016.66;;;20.34;31.63
61408;BME280;47274;43.054;25.146;2023-11-21T11:43:55;94995.69;;;20.90;30.04
61408;BME280;47274;43.054;25.146;2023-11-21T11:46:40;95016.03;;;21.23;29.62
61408;BME280;47274;43.054;25.146;2023-11-21T11:49:07;94980.53;;;20.38;29.91
61408;BME280;47274;43.054;25.146;2023-11-21T11:51:33;94993.84;;;19.31;31.91
61408;BME280;47274;43.054;25.146;2023-11-21T11:54:01;94970.56;;;19.18;30.88
61408;BME280;47274;43.054;25.146;2023-11-21T11:56:29;94998.25;;;18.81;32.70
61408;BME280;47274;43.054;25.146;2023-11-21T11:59:04;94941.44;;;17.43;33.33
61408;BME280;47274;43.054;25.146;2023-11-21T12:01:37;94988.84;;;17.90;34.35
61408;BME280;47274;43.054;25.146;2023-11-21T12:06:51;94976.78;;;17.37;35.95
61408;BME280;47274;43.054;25.146;2023-11-21T12:09:22;94954.03;;;17.13;36.08
61408;BME280;47274;43.054;25.146;2023-11-21T12:11:50;94976.16;;;16.95;35.96
61408;BME280;47274;43.054;25.146;2023-11-21T12:14:24;94971.00;;;16.75;36.40
61408;BME280;47274;43.054;25.146;2023-11-21T12:17:06;94958.19;;;16.67;36.66
61408;BME280;47274;43.054;25.146;2023-11-21T12:19:42;94979.50;;;16.63;36.78
61408;BME280;47274;43.054;25.146;2023-11-21T12:22:30;94945.75;;;16.23;36.97
61408;BME280;47274;43.054;25.146;2023-11-21T12:24:56;94984.00;;;16.27;36.78
61408;BME280;47274;43.054;25.146;2023-11-21T12:27:24;94992.72;;;16.20;37.29
61408;BME280;47274;43.054;25.146;2023-11-21T12:29:50;94986.31;;;16.09;38.04
61408;BME280;47274;43.054;25.146;2023-11-21T12:32:16;94970.38;;;15.64;39.19
61408;BME280;47274;43.054;25.146;2023-11-21T12:34:44;94944.63;;;15.21;40.06
61408;BME280;47274;43.054;25.146;2023-11-21T12:37:09;94978.13;;;15.29;40.34
61408;BME280;47274;43.054;25.146;2023-11-21T12:39:36;94936.31;;;14.91;41.44
61408;BME280;47274;43.054;25.146;2023-11-21T12:42:02;94954.03;;;15.01;40.87
61408;BME280;47274;43.054;25.146;2023-11-21T12:44:28;94892.28;;;14.56;41.69
61408;BME280;47274;43.054;25.146;2023-11-21T12:46:55;94977.22;;;15.15;41.45
61408;BME280;47274;43.054;25.146;2023-11-21T12:49:21;94947.88;;;14.52;43.99
61408;BME280;47274;43.054;25.146;2023-11-21T12:51:48;94975.25;;;14.68;42.78
61408;BME280;47274;43.054;25.146;2023-11-21T12:54:14;94971.41;;;14.85;42.26
61408;BME280;47274;43.054;25.146;2023-11-21T12:56:41;94951.38;;;14.66;43.21
61408;BME280;47274;43.054;25.146;2023-11-21T12:59:07;94946.78;;;14.61;44.94
61408;BME280;47274;43.054;25.146;2023-11-21T13:01:36;94943.34;;;14.54;43.54
61408;BME280;47274;43.054;25.146;2023-11-21T13:04:07;94967.19;;;14.78;44.28
61408;BME280;47274;43.054;25.146;2023-11-21T13:06:36;94927.09;;;14.60;43.20
61408;BME280;47274;43.054;25.146;2023-11-21T13:09:08;94964.34;;;14.73;43.97
61408;BME280;47274;43.054;25.146;2023-11-21T13:11:41;94913.06;;;14.48;43.77
61408;BME280;47274;43.054;25.146;2023-11-21T13:14:08;94961.03;;;14.79;44.00
61408;BME280;47274;43.054;25.146;2023-11-21T13:16:35;94930.66;;;14.59;44.66
61408;BME280;47274;43.054;25.146;2023-11-21T13:19:03;94960.28;;;14.85;45.00
61408;BME280;47274;43.054;25.146;2023-11-21T13:21:29;94942.53;;;14.75;45.51
61408;BME280;47274;43.054;25.146;2023-11-21T13:23:56;94947.69;;;14.75;45.79